sensor_id;sensor_type;location;lat;lon;timestamp;temperature;humidity
23160;DHT22;11748;50.844;4.396;2022-12-20T00:01:07;13.60;99.90
23160;DHT22;11748;50.844;4.396;2022-12-20T00:03:32;13.70;99.90
23160;DHT22;11748;50.844;4.396;2022-12-20T00:05:58;13.70;99.90
23160;DHT22;11748;50.844;4.396;2022-12-20T00:08:24;13.70;99.90
23160;DHT22;11748;50.844;4.396;2022-12-20T00:10:49;13.70;99.90
23160;DHT22;11748;50.844;4.396;2022-12-20T00:13:15;13.70;99.90
23160;DHT22;11748;50.844;4.396;2022-12-20T00:15:40;13.60;99.90
23160;DHT22;11748;50.844;4.396;2022-12-20T00:18:06;13.60;99.90
23160;DHT22;11748;50.844;4.396;2022-12-20T00:20:32;13.60;99.90
23160;DHT22;11748;50.844;4.396;2022-12-20T00:22:58;13.60;99.90
23160;DHT22;11748;50.844;4.396;2022-12-20T00:25:25;13.60;99.90
23160;DHT22;11748;50.844;4.396;2022-12-20T00:27:50;13.60;99.90
23160;DHT22;11748;50.844;4.396;2022-12-20T00:30:16;13.60;99.90
23160;DHT22;11748;50.844;4.396;2022-12-20T00:32:44;13.60;99.90
23160;DHT22;11748;50.844;4.396;2022-12-20T00:35:10;13.60;99.90
23160;DHT22;11748;50.844;4.396;2022-12-20T00:37:35;13.60;99.90
23160;DHT22;11748;50.844;4.396;2022-12-20T00:40:03;13.60;99.90
23160;DHT22;11748;50.844;4.396;2022-12-20T00:42:29;13.70;99.90
23160;DHT22;11748;50.844;4.396;2022-12-20T00:44:56;13.60;99.90
23160;DHT22;11748;50.844;4.396;2022-12-20T00:47:22;13.60;99.90
23160;DHT22;11748;50.844;4.396;2022-12-20T00:49:48;13.60;99.90
23160;DHT22;11748;50.844;4.396;2022-12-20T00:52:14;13.60;99.90
23160;DHT22;11748;50.844;4.396;2022-12-20T00:54:41;13.60;99.90
23160;DHT22;11748;50.844;4.396;2022-12-20T00:57:06;13.50;99.90
23160;DHT22;11748;50.844;4.396;2022-12-20T00:59:32;13.60;99.90
23160;DHT22;11748;50.844;4.396;2022-12-20T01:01:58;13.60;99.90
23160;DHT22;11748;50.844;4.396;2022-12-20T01:04:24;13.60;99.90
23160;DHT22;11748;50.844;4.396;2022-12-20T01:06:49;13.50;99.90
23160;DHT22;11748;50.844;4.396;2022-12-20T01:09:16;13.50;99.90
23160;DHT22;11748;50.844;4.396;2022-12-20T01:11:42;13.60;99.90
23160;DHT22;11748;50.844;4.396;2022-12-20T01:14:12;13.60;99.90
23160;DHT22;11748;50.844;4.396;2022-12-20T01:16:43;13.60;99.90
23160;DHT22;11748;50.844;4.396;2022-12-20T01:19:12;13.60;99.90
23160;DHT22;11748;50.844;4.396;2022-12-20T01:21:38;13.50;99.90
23160;DHT22;11748;50.844;4.396;2022-12-20T01:24:12;13.50;99.90
23160;DHT22;11748;50.844;4.396;2022-12-20T01:26:39;13.50;99.90
23160;DHT22;11748;50.844;4.396;2022-12-20T01:29:04;13.50;99.90
23160;DHT22;11748;50.844;4.396;2022-12-20T01:31:30;13.40;99.90
23160;DHT22;11748;50.844;4.396;2022-12-20T01:33:56;13.30;99.90
23160;DHT22;11748;50.844;4.396;2022-12-20T01:36:24;13.30;99.90
23160;DHT22;11748;50.844;4.396;2022-12-20T01:38:54;13.30;99.90
23160;DHT22;11748;50.844;4.396;2022-12-20T01:41:21;13.30;99.90
23160;DHT22;11748;50.844;4.396;2022-12-20T01:43:51;13.30;99.90
23160;DHT22;11748;50.844;4.396;2022-12-20T01:46:20;13.30;99.90
23160;DHT22;11748;50.844;4.396;2022-12-20T01:51:39;13.20;99.90
23160;DHT22;11748;50.844;4.396;2022-12-20T01:54:14;13.20;99.90
23160;DHT22;11748;50.844;4.396;2022-12-20T01:56:47;13.20;99.90
23160;DHT22;11748;50.844;4.396;2022-12-20T01:59:14;13.10;99.90
23160;DHT22;11748;50.844;4.396;2022-12-20T02:01:42;13.10;99.90
23160;DHT22;11748;50.844;4.396;2022-12-20T02:04:08;13.00;99.90
23160;DHT22;11748;50.844;4.396;2022-12-20T02:06:34;13.00;99.90
23160;DHT22;11748;50.844;4.396;2022-12-20T02:09:02;13.00;99.90
23160;DHT22;11748;50.844;4.396;2022-12-20T02:17:25;13.10;99.90
23160;DHT22;11748;50.844;4.396;2022-12-20T02:28:40;13.10;99.90
23160;DHT22;11748;50.844;4.396;2022-12-20T02:31:13;13.20;99.90
23160;DHT22;11748;50.844;4.396;2022-12-20T02:33:43;13.20;99.90
23160;DHT22;11748;50.844;4.396;2022-12-20T02:36:09;13.20;99.90
23160;DHT22;11748;50.844;4.396;2022-12-20T02:38:36;13.20;99.90
23160;DHT22;11748;50.844;4.396;2022-12-20T02:41:10;13.10;99.90
23160;DHT22;11748;50.844;4.396;2022-12-20T02:43:38;13.20;99.90
23160;DHT22;11748;50.844;4.396;2022-12-20T02:46:25;13.20;99.90
23160;DHT22;11748;50.844;4.396;2022-12-20T02:48:53;13.10;99.90
23160;DHT22;11748;50.844;4.396;2022-12-20T02:51:22;13.20;99.90
23160;DHT22;11748;50.844;4.396;2022-12-20T02:53:49;13.20;99.90
23160;DHT22;11748;50.844;4.396;2022-12-20T02:56:37;13.20;99.90
23160;DHT22;11748;50.844;4.396;2022-12-20T02:59:25;13.10;99.90
23160;DHT22;11748;50.844;4.396;2022-12-20T03:01:54;13.20;99.90
23160;DHT22;11748;50.844;4.396;2022-12-20T03:04:24;13.30;99.90
23160;DHT22;11748;50.844;4.396;2022-12-20T03:09:23;13.40;99.90
23160;DHT22;11748;50.844;4.396;2022-12-20T03:11:50;13.40;99.90
23160;DHT22;11748;50.844;4.396;2022-12-20T03:14:16;13.20;99.90
23160;DHT22;11748;50.844;4.396;2022-12-20T03:16:42;13.20;99.90
23160;DHT22;11748;50.844;4.396;2022-12-20T03:19:08;13.30;99.90
23160;DHT22;11748;50.844;4.396;2022-12-20T03:21:33;13.30;99.90
23160;DHT22;11748;50.844;4.396;2022-12-20T03:23:59;13.30;99.90
23160;DHT22;11748;50.844;4.396;2022-12-20T03:26:24;13.40;99.90
23160;DHT22;11748;50.844;4.396;2022-12-20T03:28:50;13.40;99.90
23160;DHT22;11748;50.844;4.396;2022-12-20T03:31:16;13.40;99.90
23160;DHT22;11748;50.844;4.396;2022-12-20T03:33:43;13.40;99.90
23160;DHT22;11748;50.844;4.396;2022-12-20T03:36:08;13.50;99.90
23160;DHT22;11748;50.844;4.396;2022-12-20T03:38:34;13.50;99.90
23160;DHT22;11748;50.844;4.396;2022-12-20T03:41:00;13.50;99.90
23160;DHT22;11748;50.844;4.396;2022-12-20T03:43:25;13.50;99.90
23160;DHT22;11748;50.844;4.396;2022-12-20T03:45:51;13.50;99.90
23160;DHT22;11748;50.844;4.396;2022-12-20T03:48:17;13.60;99.90
23160;DHT22;11748;50.844;4.396;2022-12-20T03:50:42;13.50;99.90
23160;DHT22;11748;50.844;4.396;2022-12-20T03:53:08;13.50;99.90
23160;DHT22;11748;50.844;4.396;2022-12-20T03:55:36;13.40;99.90
23160;DHT22;11748;50.844;4.396;2022-12-20T03:58:03;13.40;99.90
23160;DHT22;11748;50.844;4.396;2022-12-20T04:00:28;13.40;99.90
23160;DHT22;11748;50.844;4.396;2022-12-20T04:02:54;13.40;99.90
23160;DHT22;11748;50.844;4.396;2022-12-20T04:05:20;13.40;99.90
23160;DHT22;11748;50.844;4.396;2022-12-20T04:07:46;13.40;99.90
23160;DHT22;11748;50.844;4.396;2022-12-20T04:10:12;13.40;99.90
23160;DHT22;11748;50.844;4.396;2022-12-20T04:12:37;13.40;99.90
23160;DHT22;11748;50.844;4.396;2022-12-20T04:15:03;13.40;99.90
23160;DHT22;11748;50.844;4.396;2022-12-20T04:17:29;13.40;99.90
23160;DHT22;11748;50.844;4.396;2022-12-20T04:19:55;13.30;99.90
23160;DHT22;11748;50.844;4.396;2022-12-20T04:22:21;13.30;99.90
23160;DHT22;11748;50.844;4.396;2022-12-20T04:24:46;13.30;99.90
23160;DHT22;11748;50.844;4.396;2022-12-20T04:27:13;13.30;99.90
23160;DHT22;11748;50.844;4.396;2022-12-20T04:29:39;13.40;99.90
23160;DHT22;11748;50.844;4.396;2022-12-20T04:32:04;13.30;99.90
23160;DHT22;11748;50.844;4.396;2022-12-20T04:34:30;13.30;99.90
23160;DHT22;11748;50.844;4.396;2022-12-20T04:36:56;13.30;99.90
23160;DHT22;11748;50.844;4.396;2022-12-20T04:39:21;13.30;99.90
23160;DHT22;11748;50.844;4.396;2022-12-20T04:41:47;13.30;99.90
23160;DHT22;11748;50.844;4.396;2022-12-20T04:44:13;13.30;99.90
23160;DHT22;11748;50.844;4.396;2022-12-20T04:46:38;13.30;99.90
23160;DHT22;11748;50.844;4.396;2022-12-20T04:49:04;13.30;99.90
23160;DHT22;11748;50.844;4.396;2022-12-20T04:51:30;13.20;99.90
23160;DHT22;11748;50.844;4.396;2022-12-20T04:53:56;13.00;99.90
23160;DHT22;11748;50.844;4.396;2022-12-20T04:56:25;13.00;99.90
23160;DHT22;11748;50.844;4.396;2022-12-20T04:58:53;13.10;99.90
23160;DHT22;11748;50.844;4.396;2022-12-20T05:01:19;13.10;99.90
23160;DHT22;11748;50.844;4.396;2022-12-20T05:03:46;13.10;99.90
23160;DHT22;11748;50.844;4.396;2022-12-20T05:06:12;13.20;99.90
23160;DHT22;11748;50.844;4.396;2022-12-20T05:08:38;13.10;99.90
23160;DHT22;11748;50.844;4.396;2022-12-20T05:11:05;13.20;99.90
23160;DHT22;11748;50.844;4.396;2022-12-20T05:13:31;13.20;99.90
23160;DHT22;11748;50.844;4.396;2022-12-20T05:15:57;13.20;99.90
23160;DHT22;11748;50.844;4.396;2022-12-20T05:18:23;13.20;99.90
23160;DHT22;11748;50.844;4.396;2022-12-20T05:20:50;13.20;99.90
23160;DHT22;11748;50.844;4.396;2022-12-20T05:23:36;13.10;99.90
23160;DHT22;11748;50.844;4.396;2022-12-20T05:26:21;13.10;99.90
23160;DHT22;11748;50.844;4.396;2022-12-20T05:28:49;13.00;99.90
23160;DHT22;11748;50.844;4.396;2022-12-20T05:31:14;13.00;99.90
23160;DHT22;11748;50.844;4.396;2022-12-20T05:33:40;13.00;99.90
23160;DHT22;11748;50.844;4.396;2022-12-20T05:36:06;12.90;99.90
23160;DHT22;11748;50.844;4.396;2022-12-20T05:38:32;13.00;99.90
23160;DHT22;11748;50.844;4.396;2022-12-20T05:40:58;13.00;99.90
23160;DHT22;11748;50.844;4.396;2022-12-20T05:43:23;13.00;99.90
23160;DHT22;11748;50.844;4.396;2022-12-20T05:45:51;13.00;99.90
23160;DHT22;11748;50.844;4.396;2022-12-20T05:48:18;13.10;99.90
23160;DHT22;11748;50.844;4.396;2022-12-20T05:50:45;12.90;99.90
23160;DHT22;11748;50.844;4.396;2022-12-20T05:53:12;12.90;99.90
23160;DHT22;11748;50.844;4.396;2022-12-20T05:55:46;13.00;99.90
23160;DHT22;11748;50.844;4.396;2022-12-20T05:58:12;13.00;99.90
23160;DHT22;11748;50.844;4.396;2022-12-20T06:00:39;13.10;99.90
23160;DHT22;11748;50.844;4.396;2022-12-20T06:03:05;13.10;99.90
23160;DHT22;11748;50.844;4.396;2022-12-20T06:05:31;13.10;99.90
23160;DHT22;11748;50.844;4.396;2022-12-20T06:07:56;13.10;99.90
23160;DHT22;11748;50.844;4.396;2022-12-20T06:10:22;13.10;99.90
23160;DHT22;11748;50.844;4.396;2022-12-20T06:12:49;13.10;99.90
23160;DHT22;11748;50.844;4.396;2022-12-20T06:15:14;13.10;99.90
23160;DHT22;11748;50.844;4.396;2022-12-20T06:17:40;13.20;99.90
23160;DHT22;11748;50.844;4.396;2022-12-20T06:20:07;13.20;99.90
23160;DHT22;11748;50.844;4.396;2022-12-20T06:22:38;13.20;99.90
23160;DHT22;11748;50.844;4.396;2022-12-20T06:25:07;13.20;99.90
23160;DHT22;11748;50.844;4.396;2022-12-20T06:27:35;13.20;99.90
23160;DHT22;11748;50.844;4.396;2022-12-20T06:30:01;13.30;99.90
23160;DHT22;11748;50.844;4.396;2022-12-20T06:32:27;13.30;99.90
23160;DHT22;11748;50.844;4.396;2022-12-20T06:34:53;13.30;99.90
23160;DHT22;11748;50.844;4.396;2022-12-20T06:37:20;13.40;99.90
23160;DHT22;11748;50.844;4.396;2022-12-20T06:39:46;13.40;99.90
23160;DHT22;11748;50.844;4.396;2022-12-20T06:42:11;13.40;99.90
23160;DHT22;11748;50.844;4.396;2022-12-20T06:44:37;13.50;99.90
23160;DHT22;11748;50.844;4.396;2022-12-20T06:47:04;13.50;99.90
23160;DHT22;11748;50.844;4.396;2022-12-20T06:49:30;13.50;99.90
23160;DHT22;11748;50.844;4.396;2022-12-20T06:51:55;13.60;99.90
23160;DHT22;11748;50.844;4.396;2022-12-20T06:54:21;13.60;99.90
23160;DHT22;11748;50.844;4.396;2022-12-20T06:56:48;13.60;99.90
23160;DHT22;11748;50.844;4.396;2022-12-20T06:59:13;13.60;99.90
23160;DHT22;11748;50.844;4.396;2022-12-20T07:01:39;13.70;99.90
23160;DHT22;11748;50.844;4.396;2022-12-20T07:04:05;13.70;99.90
23160;DHT22;11748;50.844;4.396;2022-12-20T07:06:31;13.70;99.90
23160;DHT22;11748;50.844;4.396;2022-12-20T07:08:57;13.70;99.90
23160;DHT22;11748;50.844;4.396;2022-12-20T07:11:22;13.40;99.90
23160;DHT22;11748;50.844;4.396;2022-12-20T07:13:48;13.50;99.90
23160;DHT22;11748;50.844;4.396;2022-12-20T07:16:15;13.50;99.90
23160;DHT22;11748;50.844;4.396;2022-12-20T07:18:40;13.40;99.90
23160;DHT22;11748;50.844;4.396;2022-12-20T07:21:06;13.30;99.90
23160;DHT22;11748;50.844;4.396;2022-12-20T07:23:32;13.20;99.90
23160;DHT22;11748;50.844;4.396;2022-12-20T07:25:59;13.20;99.90
23160;DHT22;11748;50.844;4.396;2022-12-20T07:28:26;13.30;99.90
23160;DHT22;11748;50.844;4.396;2022-12-20T07:30:52;13.20;99.90
23160;DHT22;11748;50.844;4.396;2022-12-20T07:33:18;13.10;99.90
23160;DHT22;11748;50.844;4.396;2022-12-20T07:35:44;13.10;99.90
23160;DHT22;11748;50.844;4.396;2022-12-20T07:38:14;13.00;99.90
23160;DHT22;11748;50.844;4.396;2022-12-20T07:40:42;13.00;99.90
23160;DHT22;11748;50.844;4.396;2022-12-20T07:43:09;13.00;99.90
23160;DHT22;11748;50.844;4.396;2022-12-20T07:45:36;12.90;99.90
23160;DHT22;11748;50.844;4.396;2022-12-20T07:48:03;12.90;99.90
23160;DHT22;11748;50.844;4.396;2022-12-20T07:50:30;12.90;99.90
23160;DHT22;11748;50.844;4.396;2022-12-20T07:52:57;12.90;99.90
23160;DHT22;11748;50.844;4.396;2022-12-20T07:55:23;12.90;99.90
23160;DHT22;11748;50.844;4.396;2022-12-20T07:57:55;12.90;99.90
23160;DHT22;11748;50.844;4.396;2022-12-20T08:00:21;12.70;99.90
23160;DHT22;11748;50.844;4.396;2022-12-20T08:02:59;12.80;99.90
23160;DHT22;11748;50.844;4.396;2022-12-20T08:05:26;12.80;99.90
23160;DHT22;11748;50.844;4.396;2022-12-20T08:07:55;12.80;99.90
23160;DHT22;11748;50.844;4.396;2022-12-20T08:10:23;12.80;99.90
23160;DHT22;11748;50.844;4.396;2022-12-20T08:12:50;12.70;99.90
23160;DHT22;11748;50.844;4.396;2022-12-20T08:15:16;12.70;99.90
23160;DHT22;11748;50.844;4.396;2022-12-20T08:17:43;12.70;99.90
23160;DHT22;11748;50.844;4.396;2022-12-20T08:20:09;12.70;99.90
23160;DHT22;11748;50.844;4.396;2022-12-20T08:22:35;12.70;99.90
23160;DHT22;11748;50.844;4.396;2022-12-20T08:25:01;12.70;99.90
23160;DHT22;11748;50.844;4.396;2022-12-20T08:27:27;12.80;99.90
23160;DHT22;11748;50.844;4.396;2022-12-20T08:29:54;12.80;99.90
23160;DHT22;11748;50.844;4.396;2022-12-20T08:32:19;12.90;99.90
23160;DHT22;11748;50.844;4.396;2022-12-20T08:34:45;12.90;99.90
23160;DHT22;11748;50.844;4.396;2022-12-20T08:37:15;12.90;99.90
23160;DHT22;11748;50.844;4.396;2022-12-20T08:39:42;12.90;99.90
23160;DHT22;11748;50.844;4.396;2022-12-20T08:42:08;12.90;99.90
23160;DHT22;11748;50.844;4.396;2022-12-20T08:44:33;13.00;99.90
23160;DHT22;11748;50.844;4.396;2022-12-20T08:46:59;13.00;99.90
23160;DHT22;11748;50.844;4.396;2022-12-20T08:49:25;13.00;99.90
23160;DHT22;11748;50.844;4.396;2022-12-20T08:51:50;13.00;99.90
23160;DHT22;11748;50.844;4.396;2022-12-20T08:54:16;13.10;99.90
23160;DHT22;11748;50.844;4.396;2022-12-20T08:56:43;13.10;99.90
23160;DHT22;11748;50.844;4.396;2022-12-20T08:59:08;13.10;99.90
23160;DHT22;11748;50.844;4.396;2022-12-20T09:01:34;13.20;99.90
23160;DHT22;11748;50.844;4.396;2022-12-20T09:04:00;13.20;99.90
23160;DHT22;11748;50.844;4.396;2022-12-20T09:06:26;13.20;99.90
23160;DHT22;11748;50.844;4.396;2022-12-20T09:08:51;13.20;99.90
23160;DHT22;11748;50.844;4.396;2022-12-20T09:11:20;13.20;99.90
23160;DHT22;11748;50.844;4.396;2022-12-20T09:13:48;13.20;99.90
23160;DHT22;11748;50.844;4.396;2022-12-20T09:16:17;13.30;99.90
23160;DHT22;11748;50.844;4.396;2022-12-20T09:18:43;13.40;99.90
23160;DHT22;11748;50.844;4.396;2022-12-20T09:21:16;13.40;99.90
23160;DHT22;11748;50.844;4.396;2022-12-20T09:23:41;13.40;99.90
23160;DHT22;11748;50.844;4.396;2022-12-20T09:26:10;13.20;99.90
23160;DHT22;11748;50.844;4.396;2022-12-20T09:28:36;13.20;99.90
23160;DHT22;11748;50.844;4.396;2022-12-20T09:31:04;13.30;99.90
23160;DHT22;11748;50.844;4.396;2022-12-20T09:33:32;13.50;99.90
23160;DHT22;11748;50.844;4.396;2022-12-20T09:35:59;13.50;99.90
23160;DHT22;11748;50.844;4.396;2022-12-20T09:38:26;13.50;99.90
23160;DHT22;11748;50.844;4.396;2022-12-20T09:40:57;13.50;99.90
23160;DHT22;11748;50.844;4.396;2022-12-20T09:43:23;13.50;99.90
23160;DHT22;11748;50.844;4.396;2022-12-20T09:45:52;13.50;99.90
23160;DHT22;11748;50.844;4.396;2022-12-20T09:48:34;13.50;99.90
23160;DHT22;11748;50.844;4.396;2022-12-20T09:51:14;13.40;99.90
23160;DHT22;11748;50.844;4.396;2022-12-20T09:56:26;13.30;99.90
23160;DHT22;11748;50.844;4.396;2022-12-20T09:59:02;13.20;99.90
23160;DHT22;11748;50.844;4.396;2022-12-20T10:01:32;13.10;99.90
23160;DHT22;11748;50.844;4.396;2022-12-20T10:04:00;13.00;99.90
23160;DHT22;11748;50.844;4.396;2022-12-20T10:23:01;12.90;99.90
23160;DHT22;11748;50.844;4.396;2022-12-20T10:25:31;12.90;99.90
23160;DHT22;11748;50.844;4.396;2022-12-20T10:28:10;12.90;99.90
23160;DHT22;11748;50.844;4.396;2022-12-20T10:30:36;12.90;99.90
23160;DHT22;11748;50.844;4.396;2022-12-20T10:33:02;13.00;99.90
23160;DHT22;11748;50.844;4.396;2022-12-20T10:35:38;13.00;99.90
23160;DHT22;11748;50.844;4.396;2022-12-20T10:38:05;13.10;99.90
23160;DHT22;11748;50.844;4.396;2022-12-20T10:43:04;13.20;99.90
23160;DHT22;11748;50.844;4.396;2022-12-20T10:45:38;12.80;99.90
23160;DHT22;11748;50.844;4.396;2022-12-20T10:48:35;13.00;99.90
23160;DHT22;11748;50.844;4.396;2022-12-20T10:53:33;12.80;99.90
23160;DHT22;11748;50.844;4.396;2022-12-20T10:56:20;12.80;99.90
23160;DHT22;11748;50.844;4.396;2022-12-20T11:01:43;12.80;99.90
23160;DHT22;11748;50.844;4.396;2022-12-20T11:04:39;12.90;99.90
23160;DHT22;11748;50.844;4.396;2022-12-20T11:07:38;12.80;99.90
23160;DHT22;11748;50.844;4.396;2022-12-20T11:10:22;12.90;99.90
23160;DHT22;11748;50.844;4.396;2022-12-20T11:12:55;13.00;99.90
23160;DHT22;11748;50.844;4.396;2022-12-20T11:15:32;13.00;99.90
23160;DHT22;11748;50.844;4.396;2022-12-20T11:18:05;13.00;99.90
23160;DHT22;11748;50.844;4.396;2022-12-20T11:20:41;12.90;99.90
23160;DHT22;11748;50.844;4.396;2022-12-20T11:23:20;12.90;99.90
23160;DHT22;11748;50.844;4.396;2022-12-20T11:26:12;12.80;99.90
23160;DHT22;11748;50.844;4.396;2022-12-20T11:34:26;12.60;99.90
23160;DHT22;11748;50.844;4.396;2022-12-20T11:42:58;12.90;99.90
23160;DHT22;11748;50.844;4.396;2022-12-20T11:51:24;12.70;99.90
23160;DHT22;11748;50.844;4.396;2022-12-20T11:54:02;12.70;99.90
23160;DHT22;11748;50.844;4.396;2022-12-20T11:56:36;12.80;99.90
23160;DHT22;11748;50.844;4.396;2022-12-20T11:59:04;12.50;99.90
23160;DHT22;11748;50.844;4.396;2022-12-20T12:01:39;12.40;99.90
23160;DHT22;11748;50.844;4.396;2022-12-20T12:04:20;12.60;99.90
23160;DHT22;11748;50.844;4.396;2022-12-20T12:06:58;12.60;99.90
23160;DHT22;11748;50.844;4.396;2022-12-20T12:10:02;12.60;99.90
23160;DHT22;11748;50.844;4.396;2022-12-20T12:12:32;12.70;99.90
23160;DHT22;11748;50.844;4.396;2022-12-20T12:15:28;12.60;99.90
23160;DHT22;11748;50.844;4.396;2022-12-20T12:18:00;12.60;99.90
23160;DHT22;11748;50.844;4.396;2022-12-20T12:20:47;12.60;99.90
23160;DHT22;11748;50.844;4.396;2022-12-20T12:23:20;12.60;99.90
23160;DHT22;11748;50.844;4.396;2022-12-20T12:25:47;12.60;99.90
23160;DHT22;11748;50.844;4.396;2022-12-20T12:28:14;12.50;99.90
23160;DHT22;11748;50.844;4.396;2022-12-20T12:31:03;12.50;99.90
23160;DHT22;11748;50.844;4.396;2022-12-20T12:33:40;12.40;99.90
23160;DHT22;11748;50.844;4.396;2022-12-20T12:39:10;12.40;99.90
23160;DHT22;11748;50.844;4.396;2022-12-20T12:47:35;12.20;99.90
23160;DHT22;11748;50.844;4.396;2022-12-20T12:50:06;12.10;99.90
23160;DHT22;11748;50.844;4.396;2022-12-20T12:52:49;11.90;99.90
23160;DHT22;11748;50.844;4.396;2022-12-20T13:11:36;11.80;99.90
23160;DHT22;11748;50.844;4.396;2022-12-20T13:22:12;11.90;99.90
23160;DHT22;11748;50.844;4.396;2022-12-20T13:25:34;12.00;99.90
23160;DHT22;11748;50.844;4.396;2022-12-20T13:38:54;12.20;99.90
23160;DHT22;11748;50.844;4.396;2022-12-20T13:41:29;12.20;99.90
23160;DHT22;11748;50.844;4.396;2022-12-20T13:43:58;12.30;99.90
23160;DHT22;11748;50.844;4.396;2022-12-20T13:49:36;12.40;99.90
23160;DHT22;11748;50.844;4.396;2022-12-20T13:54:51;12.10;99.90
23160;DHT22;11748;50.844;4.396;2022-12-20T13:57:25;12.10;99.90
23160;DHT22;11748;50.844;4.396;2022-12-20T13:59:53;12.20;99.90
23160;DHT22;11748;50.844;4.396;2022-12-20T14:02:23;12.30;99.90
23160;DHT22;11748;50.844;4.396;2022-12-20T14:04:59;12.30;99.90
23160;DHT22;11748;50.844;4.396;2022-12-20T14:07:26;12.30;99.90
23160;DHT22;11748;50.844;4.396;2022-12-20T14:10:18;12.30;99.90
23160;DHT22;11748;50.844;4.396;2022-12-20T14:12:46;12.40;99.90
23160;DHT22;11748;50.844;4.396;2022-12-20T14:15:27;12.40;99.90
23160;DHT22;11748;50.844;4.396;2022-12-20T14:17:54;12.40;99.90
23160;DHT22;11748;50.844;4.396;2022-12-20T14:20:21;12.50;99.90
23160;DHT22;11748;50.844;4.396;2022-12-20T14:25:36;12.40;99.90
23160;DHT22;11748;50.844;4.396;2022-12-20T14:28:02;12.20;99.90
23160;DHT22;11748;50.844;4.396;2022-12-20T14:30:40;12.20;99.90
23160;DHT22;11748;50.844;4.396;2022-12-20T14:35:54;12.40;99.90
23160;DHT22;11748;50.844;4.396;2022-12-20T14:38:24;12.40;99.90
23160;DHT22;11748;50.844;4.396;2022-12-20T14:40:54;12.40;99.90
23160;DHT22;11748;50.844;4.396;2022-12-20T14:43:43;12.40;99.90
23160;DHT22;11748;50.844;4.396;2022-12-20T14:46:18;12.40;99.90
23160;DHT22;11748;50.844;4.396;2022-12-20T14:49:20;12.50;99.90
23160;DHT22;11748;50.844;4.396;2022-12-20T14:51:47;12.40;99.90
23160;DHT22;11748;50.844;4.396;2022-12-20T14:54:22;12.40;99.90
23160;DHT22;11748;50.844;4.396;2022-12-20T14:56:50;12.40;99.90
23160;DHT22;11748;50.844;4.396;2022-12-20T14:59:21;12.40;99.90
23160;DHT22;11748;50.844;4.396;2022-12-20T15:01:51;12.40;99.90
23160;DHT22;11748;50.844;4.396;2022-12-20T15:06:53;12.40;99.90
23160;DHT22;11748;50.844;4.396;2022-12-20T15:09:19;12.30;99.90
23160;DHT22;11748;50.844;4.396;2022-12-20T15:11:46;12.30;99.90
23160;DHT22;11748;50.844;4.396;2022-12-20T15:16:47;12.20;99.90
23160;DHT22;11748;50.844;4.396;2022-12-20T15:19:14;12.20;99.90
23160;DHT22;11748;50.844;4.396;2022-12-20T15:21:41;12.20;99.90
23160;DHT22;11748;50.844;4.396;2022-12-20T15:24:15;12.20;99.90
23160;DHT22;11748;50.844;4.396;2022-12-20T15:26:44;12.20;99.90
23160;DHT22;11748;50.844;4.396;2022-12-20T15:29:23;12.30;99.90
23160;DHT22;11748;50.844;4.396;2022-12-20T15:31:58;12.20;99.90
23160;DHT22;11748;50.844;4.396;2022-12-20T15:34:35;12.20;99.90
23160;DHT22;11748;50.844;4.396;2022-12-20T15:37:02;12.20;99.90
23160;DHT22;11748;50.844;4.396;2022-12-20T15:39:29;12.20;99.90
23160;DHT22;11748;50.844;4.396;2022-12-20T15:41:55;12.20;99.90
23160;DHT22;11748;50.844;4.396;2022-12-20T15:44:25;12.20;99.90
23160;DHT22;11748;50.844;4.396;2022-12-20T15:46:52;12.30;99.90
23160;DHT22;11748;50.844;4.396;2022-12-20T15:49:20;12.20;99.90
23160;DHT22;11748;50.844;4.396;2022-12-20T15:51:47;12.20;99.90
23160;DHT22;11748;50.844;4.396;2022-12-20T15:54:35;12.20;99.90
23160;DHT22;11748;50.844;4.396;2022-12-20T15:57:06;12.20;99.90
23160;DHT22;11748;50.844;4.396;2022-12-20T15:59:34;12.20;99.90
23160;DHT22;11748;50.844;4.396;2022-12-20T16:02:00;11.90;99.90
23160;DHT22;11748;50.844;4.396;2022-12-20T16:04:26;11.60;99.90
23160;DHT22;11748;50.844;4.396;2022-12-20T16:06:55;11.60;99.90
23160;DHT22;11748;50.844;4.396;2022-12-20T16:09:21;11.70;99.90
23160;DHT22;11748;50.844;4.396;2022-12-20T16:11:49;11.90;99.90
23160;DHT22;11748;50.844;4.396;2022-12-20T16:14:17;11.90;99.90
23160;DHT22;11748;50.844;4.396;2022-12-20T16:16:46;11.90;99.90
23160;DHT22;11748;50.844;4.396;2022-12-20T16:19:13;12.00;99.90
23160;DHT22;11748;50.844;4.396;2022-12-20T16:21:48;12.00;99.90
23160;DHT22;11748;50.844;4.396;2022-12-20T16:24:19;12.10;99.90
23160;DHT22;11748;50.844;4.396;2022-12-20T16:26:45;12.10;99.90
23160;DHT22;11748;50.844;4.396;2022-12-20T16:29:12;11.90;99.90
23160;DHT22;11748;50.844;4.396;2022-12-20T16:31:39;12.00;99.90
23160;DHT22;11748;50.844;4.396;2022-12-20T16:34:12;12.10;99.90
23160;DHT22;11748;50.844;4.396;2022-12-20T16:36:39;12.10;99.90
23160;DHT22;11748;50.844;4.396;2022-12-20T16:39:05;12.10;99.90
23160;DHT22;11748;50.844;4.396;2022-12-20T16:41:31;12.00;99.90
23160;DHT22;11748;50.844;4.396;2022-12-20T16:44:00;12.00;99.90
23160;DHT22;11748;50.844;4.396;2022-12-20T16:46:29;12.00;99.90
23160;DHT22;11748;50.844;4.396;2022-12-20T16:48:58;12.10;99.90
23160;DHT22;11748;50.844;4.396;2022-12-20T16:51:39;12.10;99.90
23160;DHT22;11748;50.844;4.396;2022-12-20T16:54:25;12.10;99.90
23160;DHT22;11748;50.844;4.396;2022-12-20T16:56:52;12.20;99.90
23160;DHT22;11748;50.844;4.396;2022-12-20T16:59:24;12.20;99.90
23160;DHT22;11748;50.844;4.396;2022-12-20T17:01:54;12.20;99.90
23160;DHT22;11748;50.844;4.396;2022-12-20T17:04:22;12.10;99.90
23160;DHT22;11748;50.844;4.396;2022-12-20T17:06:48;12.10;99.90
23160;DHT22;11748;50.844;4.396;2022-12-20T17:09:15;12.10;99.90
23160;DHT22;11748;50.844;4.396;2022-12-20T17:11:42;12.10;99.90
23160;DHT22;11748;50.844;4.396;2022-12-20T17:14:11;12.20;99.90
23160;DHT22;11748;50.844;4.396;2022-12-20T17:16:39;12.20;99.90
23160;DHT22;11748;50.844;4.396;2022-12-20T17:19:05;12.20;99.90
23160;DHT22;11748;50.844;4.396;2022-12-20T17:21:41;12.20;99.90
23160;DHT22;11748;50.844;4.396;2022-12-20T17:24:18;12.10;99.90
23160;DHT22;11748;50.844;4.396;2022-12-20T17:26:44;12.10;99.90
23160;DHT22;11748;50.844;4.396;2022-12-20T17:29:10;12.10;99.90
23160;DHT22;11748;50.844;4.396;2022-12-20T17:31:39;12.10;99.90
23160;DHT22;11748;50.844;4.396;2022-12-20T17:34:28;12.10;99.90
23160;DHT22;11748;50.844;4.396;2022-12-20T17:37:07;12.00;99.90
23160;DHT22;11748;50.844;4.396;2022-12-20T17:39:35;12.00;99.90
23160;DHT22;11748;50.844;4.396;2022-12-20T17:42:11;12.00;99.90
23160;DHT22;11748;50.844;4.396;2022-12-20T17:44:51;12.00;99.90
23160;DHT22;11748;50.844;4.396;2022-12-20T17:47:26;12.00;99.90
23160;DHT22;11748;50.844;4.396;2022-12-20T17:50:00;12.00;99.90